Niederwald, Texas
Current Conditions -  °F | °C
As of 8:15 PM on Thursday 18 Dec 2014 (Local Time) from KHYI Reporting Station
Overcast Overcast  
Wind Chill: 55°   Ceiling: 500
Heat Index: 55°   Visibility: 7mi
Dew Point: 52°   Wind: 15mph
Humidity: 88%   Direction: 50°NE
Pressure: 30.06"   Gusts: NA
Location:  29.9978°N, 97.835°W
Report Text: KHYI 190215Z 05013KT 7SM OVC005 13/11 A3006 RMK AO1
Loading
Personal Weather Stations






























Interactive Weather Map New forecast layout! Learn more

10-Day Weather Forecast

Advertisements
Track Severe Weather on mobile